Terminal Aerodrome Forecast
Issued by NWS Melbourne, FL

Home | Current Version | Previous Version | Text Only | Print | Product List | Glossary On
Versions: 1 2 3 4 5 6 7 8 9 10 11 12 13 14 15 16 17 18 19 20 21 22
757
FTUS42 KMLB 272124 AAB
TAFDAB
TAF AMD
KDAB 272124Z 2721/2818 08009KT P6SM VCSH SCT015 BKN040 OVC100
      TEMPO 2721/2723 6SM -SHRA BKN015
     FM272300 VRB04KT P6SM VCSH SCT025 BKN070
     FM281500 08005KT P6SM BKN250 PROB30 2815/2818 P6SM -SHRA
      BKN250=

USA.gov is the U.S. government's official web portal to all federal, state and local government web resources and services.